sensor_id;sensor_type;location;lat;lon;timestamp;temperature;humidity
34829;DHT22;21042;47.620;12.188;2023-04-03T00:01:05;2.60;99.90
34829;DHT22;21042;47.620;12.188;2023-04-03T00:03:32;2.50;99.90
34829;DHT22;21042;47.620;12.188;2023-04-03T00:06:00;2.60;99.90
34829;DHT22;21042;47.620;12.188;2023-04-03T00:08:26;2.60;99.90
34829;DHT22;21042;47.620;12.188;2023-04-03T00:10:53;2.60;99.90
34829;DHT22;21042;47.620;12.188;2023-04-03T00:13:20;2.60;99.90
34829;DHT22;21042;47.620;12.188;2023-04-03T00:15:47;2.60;99.90
34829;DHT22;21042;47.620;12.188;2023-04-03T00:18:14;2.60;99.90
34829;DHT22;21042;47.620;12.188;2023-04-03T00:20:40;2.60;99.90
34829;DHT22;21042;47.620;12.188;2023-04-03T00:23:07;2.70;99.90
34829;DHT22;21042;47.620;12.188;2023-04-03T00:25:34;2.60;99.90
34829;DHT22;21042;47.620;12.188;2023-04-03T00:28:01;2.70;99.90
34829;DHT22;21042;47.620;12.188;2023-04-03T00:30:28;2.70;99.90
34829;DHT22;21042;47.620;12.188;2023-04-03T00:32:55;2.70;99.90
34829;DHT22;21042;47.620;12.188;2023-04-03T00:35:23;2.70;99.90
34829;DHT22;21042;47.620;12.188;2023-04-03T00:37:54;2.80;99.90
34829;DHT22;21042;47.620;12.188;2023-04-03T00:40:23;2.80;99.90
34829;DHT22;21042;47.620;12.188;2023-04-03T00:42:57;2.80;99.90
34829;DHT22;21042;47.620;12.188;2023-04-03T00:45:33;2.80;99.90
34829;DHT22;21042;47.620;12.188;2023-04-03T00:48:04;2.80;99.90
34829;DHT22;21042;47.620;12.188;2023-04-03T00:50:35;2.80;99.90
34829;DHT22;21042;47.620;12.188;2023-04-03T00:53:05;2.80;99.90
34829;DHT22;21042;47.620;12.188;2023-04-03T00:55:34;2.80;99.90
34829;DHT22;21042;47.620;12.188;2023-04-03T00:58:02;2.80;99.90
34829;DHT22;21042;47.620;12.188;2023-04-03T01:00:29;2.80;99.90
34829;DHT22;21042;47.620;12.188;2023-04-03T01:02:56;2.80;99.90
34829;DHT22;21042;47.620;12.188;2023-04-03T01:05:24;2.90;99.90
34829;DHT22;21042;47.620;12.188;2023-04-03T01:07:51;2.90;99.90
34829;DHT22;21042;47.620;12.188;2023-04-03T01:10:19;2.90;99.90
34829;DHT22;21042;47.620;12.188;2023-04-03T01:12:49;2.90;99.90
34829;DHT22;21042;47.620;12.188;2023-04-03T01:15:21;2.80;99.90
34829;DHT22;21042;47.620;12.188;2023-04-03T01:17:54;2.90;99.90
34829;DHT22;21042;47.620;12.188;2023-04-03T01:25:38;2.90;99.90
34829;DHT22;21042;47.620;12.188;2023-04-03T01:28:07;2.90;99.90
34829;DHT22;21042;47.620;12.188;2023-04-03T01:30:44;2.90;99.90
34829;DHT22;21042;47.620;12.188;2023-04-03T01:33:13;2.90;99.90
34829;DHT22;21042;47.620;12.188;2023-04-03T01:35:40;2.90;99.90
34829;DHT22;21042;47.620;12.188;2023-04-03T01:38:07;2.90;99.90
34829;DHT22;21042;47.620;12.188;2023-04-03T01:40:33;2.90;99.90
34829;DHT22;21042;47.620;12.188;2023-04-03T01:43:02;2.90;99.90
34829;DHT22;21042;47.620;12.188;2023-04-03T01:45:29;2.90;99.90
34829;DHT22;21042;47.620;12.188;2023-04-03T01:47:56;2.90;99.90
34829;DHT22;21042;47.620;12.188;2023-04-03T01:50:24;2.90;99.90
34829;DHT22;21042;47.620;12.188;2023-04-03T01:52:51;2.90;99.90
34829;DHT22;21042;47.620;12.188;2023-04-03T01:55:18;2.90;99.90
34829;DHT22;21042;47.620;12.188;2023-04-03T01:57:45;3.00;99.90
34829;DHT22;21042;47.620;12.188;2023-04-03T02:00:12;3.00;99.90
34829;DHT22;21042;47.620;12.188;2023-04-03T02:02:40;3.00;99.90
34829;DHT22;21042;47.620;12.188;2023-04-03T02:05:07;3.00;99.90
34829;DHT22;21042;47.620;12.188;2023-04-03T02:07:34;3.00;99.90
34829;DHT22;21042;47.620;12.188;2023-04-03T02:10:02;3.00;99.90
34829;DHT22;21042;47.620;12.188;2023-04-03T02:12:28;3.00;99.90
34829;DHT22;21042;47.620;12.188;2023-04-03T02:14:55;3.00;99.90
34829;DHT22;21042;47.620;12.188;2023-04-03T02:17:22;3.00;99.90
34829;DHT22;21042;47.620;12.188;2023-04-03T02:19:48;3.00;99.90
34829;DHT22;21042;47.620;12.188;2023-04-03T02:22:15;3.00;99.90
34829;DHT22;21042;47.620;12.188;2023-04-03T02:24:42;3.10;99.90
34829;DHT22;21042;47.620;12.188;2023-04-03T02:27:09;3.10;99.90
34829;DHT22;21042;47.620;12.188;2023-04-03T02:29:35;3.10;99.90
34829;DHT22;21042;47.620;12.188;2023-04-03T02:32:03;3.10;99.90
34829;DHT22;21042;47.620;12.188;2023-04-03T02:34:31;3.10;99.90
34829;DHT22;21042;47.620;12.188;2023-04-03T02:37:00;3.10;99.90
34829;DHT22;21042;47.620;12.188;2023-04-03T02:39:26;3.10;99.90
34829;DHT22;21042;47.620;12.188;2023-04-03T02:41:54;3.10;99.90
34829;DHT22;21042;47.620;12.188;2023-04-03T02:44:23;3.10;99.90
34829;DHT22;21042;47.620;12.188;2023-04-03T02:46:51;3.10;99.90
34829;DHT22;21042;47.620;12.188;2023-04-03T02:49:18;3.10;99.90
34829;DHT22;21042;47.620;12.188;2023-04-03T02:51:45;3.10;99.90
34829;DHT22;21042;47.620;12.188;2023-04-03T02:54:12;3.10;99.90
34829;DHT22;21042;47.620;12.188;2023-04-03T02:56:43;3.00;99.90
34829;DHT22;21042;47.620;12.188;2023-04-03T02:59:10;3.10;99.90
34829;DHT22;21042;47.620;12.188;2023-04-03T03:01:38;3.10;99.90
34829;DHT22;21042;47.620;12.188;2023-04-03T03:04:05;3.00;99.90
34829;DHT22;21042;47.620;12.188;2023-04-03T03:06:32;3.10;99.90
34829;DHT22;21042;47.620;12.188;2023-04-03T03:08:58;3.10;99.90
34829;DHT22;21042;47.620;12.188;2023-04-03T03:11:25;3.10;99.90
34829;DHT22;21042;47.620;12.188;2023-04-03T03:13:52;3.10;99.90
34829;DHT22;21042;47.620;12.188;2023-04-03T03:16:19;3.10;99.90
34829;DHT22;21042;47.620;12.188;2023-04-03T03:18:46;3.00;99.90
34829;DHT22;21042;47.620;12.188;2023-04-03T03:21:13;3.00;99.90
34829;DHT22;21042;47.620;12.188;2023-04-03T03:23:40;3.00;99.90
34829;DHT22;21042;47.620;12.188;2023-04-03T03:26:08;3.00;99.90
34829;DHT22;21042;47.620;12.188;2023-04-03T03:28:35;3.00;99.90
34829;DHT22;21042;47.620;12.188;2023-04-03T03:31:04;3.00;99.90
34829;DHT22;21042;47.620;12.188;2023-04-03T03:33:32;3.00;99.90
34829;DHT22;21042;47.620;12.188;2023-04-03T03:35:59;3.00;99.90
34829;DHT22;21042;47.620;12.188;2023-04-03T03:38:26;3.00;99.90
34829;DHT22;21042;47.620;12.188;2023-04-03T03:40:53;3.00;99.90
34829;DHT22;21042;47.620;12.188;2023-04-03T03:43:21;3.00;99.90
34829;DHT22;21042;47.620;12.188;2023-04-03T03:45:50;2.90;99.90
34829;DHT22;21042;47.620;12.188;2023-04-03T03:48:18;2.90;99.90
34829;DHT22;21042;47.620;12.188;2023-04-03T03:50:46;2.90;99.90
34829;DHT22;21042;47.620;12.188;2023-04-03T03:53:12;2.90;99.90
34829;DHT22;21042;47.620;12.188;2023-04-03T03:55:39;2.80;99.90
34829;DHT22;21042;47.620;12.188;2023-04-03T03:58:06;2.80;99.90
34829;DHT22;21042;47.620;12.188;2023-04-03T04:00:34;2.90;99.90
34829;DHT22;21042;47.620;12.188;2023-04-03T04:03:01;2.90;99.90
34829;DHT22;21042;47.620;12.188;2023-04-03T04:05:29;2.80;99.90
34829;DHT22;21042;47.620;12.188;2023-04-03T04:07:58;2.80;99.90
34829;DHT22;21042;47.620;12.188;2023-04-03T04:10:25;2.80;99.90
34829;DHT22;21042;47.620;12.188;2023-04-03T04:12:52;2.80;99.90
34829;DHT22;21042;47.620;12.188;2023-04-03T04:15:22;2.80;99.90
34829;DHT22;21042;47.620;12.188;2023-04-03T04:17:50;2.80;99.90
34829;DHT22;21042;47.620;12.188;2023-04-03T04:20:17;2.80;99.90
34829;DHT22;21042;47.620;12.188;2023-04-03T04:22:46;2.80;99.90
34829;DHT22;21042;47.620;12.188;2023-04-03T04:25:13;2.80;99.90
34829;DHT22;21042;47.620;12.188;2023-04-03T04:27:40;2.80;99.90
34829;DHT22;21042;47.620;12.188;2023-04-03T04:30:07;2.80;99.90
34829;DHT22;21042;47.620;12.188;2023-04-03T04:32:34;2.80;99.90
34829;DHT22;21042;47.620;12.188;2023-04-03T04:35:02;2.80;99.90
34829;DHT22;21042;47.620;12.188;2023-04-03T04:37:32;2.80;99.90
34829;DHT22;21042;47.620;12.188;2023-04-03T04:39:59;2.70;99.90
34829;DHT22;21042;47.620;12.188;2023-04-03T04:42:26;2.70;99.90
34829;DHT22;21042;47.620;12.188;2023-04-03T04:44:52;2.70;99.90
34829;DHT22;21042;47.620;12.188;2023-04-03T04:47:19;2.70;99.90
34829;DHT22;21042;47.620;12.188;2023-04-03T04:49:46;2.70;99.90
34829;DHT22;21042;47.620;12.188;2023-04-03T04:52:14;2.70;99.90
34829;DHT22;21042;47.620;12.188;2023-04-03T04:54:41;2.70;99.90
34829;DHT22;21042;47.620;12.188;2023-04-03T04:57:08;2.70;99.90
34829;DHT22;21042;47.620;12.188;2023-04-03T04:59:35;2.70;99.90
34829;DHT22;21042;47.620;12.188;2023-04-03T05:02:02;2.80;99.90
34829;DHT22;21042;47.620;12.188;2023-04-03T05:04:30;2.80;99.90
34829;DHT22;21042;47.620;12.188;2023-04-03T05:07:03;2.80;99.90
34829;DHT22;21042;47.620;12.188;2023-04-03T05:09:33;2.70;99.90
34829;DHT22;21042;47.620;12.188;2023-04-03T05:12:00;2.80;99.90
34829;DHT22;21042;47.620;12.188;2023-04-03T05:14:31;2.80;99.90
34829;DHT22;21042;47.620;12.188;2023-04-03T05:17:02;2.70;99.90
34829;DHT22;21042;47.620;12.188;2023-04-03T05:19:32;2.70;99.90
34829;DHT22;21042;47.620;12.188;2023-04-03T05:21:59;2.70;99.90
34829;DHT22;21042;47.620;12.188;2023-04-03T05:24:28;2.70;99.90
34829;DHT22;21042;47.620;12.188;2023-04-03T05:26:55;2.80;99.90
34829;DHT22;21042;47.620;12.188;2023-04-03T05:29:22;2.70;99.90
34829;DHT22;21042;47.620;12.188;2023-04-03T05:31:50;2.70;99.90
34829;DHT22;21042;47.620;12.188;2023-04-03T05:34:17;2.80;99.90
34829;DHT22;21042;47.620;12.188;2023-04-03T05:36:46;2.70;99.90
34829;DHT22;21042;47.620;12.188;2023-04-03T05:39:14;2.80;99.90
34829;DHT22;21042;47.620;12.188;2023-04-03T05:41:43;2.70;99.90
34829;DHT22;21042;47.620;12.188;2023-04-03T05:44:10;2.80;99.90
34829;DHT22;21042;47.620;12.188;2023-04-03T05:46:37;2.80;99.90
34829;DHT22;21042;47.620;12.188;2023-04-03T05:49:07;2.80;99.90
34829;DHT22;21042;47.620;12.188;2023-04-03T05:54:29;2.80;99.90
34829;DHT22;21042;47.620;12.188;2023-04-03T05:57:03;2.90;99.90
34829;DHT22;21042;47.620;12.188;2023-04-03T05:59:30;2.90;99.90
34829;DHT22;21042;47.620;12.188;2023-04-03T06:01:59;2.90;99.90
34829;DHT22;21042;47.620;12.188;2023-04-03T06:04:26;2.90;99.90
34829;DHT22;21042;47.620;12.188;2023-04-03T06:06:54;2.90;99.90
34829;DHT22;21042;47.620;12.188;2023-04-03T06:09:23;2.90;99.90
34829;DHT22;21042;47.620;12.188;2023-04-03T06:11:49;2.90;99.90
34829;DHT22;21042;47.620;12.188;2023-04-03T06:14:16;3.00;99.90
34829;DHT22;21042;47.620;12.188;2023-04-03T06:16:43;3.00;99.90
34829;DHT22;21042;47.620;12.188;2023-04-03T06:19:10;3.00;99.90
34829;DHT22;21042;47.620;12.188;2023-04-03T06:21:42;3.00;99.90
34829;DHT22;21042;47.620;12.188;2023-04-03T06:24:09;3.00;99.90
34829;DHT22;21042;47.620;12.188;2023-04-03T06:26:36;2.90;99.90
34829;DHT22;21042;47.620;12.188;2023-04-03T06:29:02;3.00;99.90
34829;DHT22;21042;47.620;12.188;2023-04-03T06:31:29;3.00;99.90
34829;DHT22;21042;47.620;12.188;2023-04-03T06:33:56;3.00;99.90
34829;DHT22;21042;47.620;12.188;2023-04-03T06:36:22;3.00;99.90
34829;DHT22;21042;47.620;12.188;2023-04-03T06:38:49;3.00;99.90
34829;DHT22;21042;47.620;12.188;2023-04-03T06:41:16;3.00;99.90
34829;DHT22;21042;47.620;12.188;2023-04-03T06:43:43;3.00;99.90
34829;DHT22;21042;47.620;12.188;2023-04-03T06:46:12;3.00;99.90
34829;DHT22;21042;47.620;12.188;2023-04-03T06:48:39;3.00;99.90
34829;DHT22;21042;47.620;12.188;2023-04-03T06:51:17;3.00;99.90
34829;DHT22;21042;47.620;12.188;2023-04-03T06:53:45;3.00;99.90
34829;DHT22;21042;47.620;12.188;2023-04-03T06:56:12;3.10;99.90
34829;DHT22;21042;47.620;12.188;2023-04-03T06:58:39;3.10;99.90
34829;DHT22;21042;47.620;12.188;2023-04-03T07:01:05;3.10;99.90
34829;DHT22;21042;47.620;12.188;2023-04-03T07:03:32;3.10;99.90
34829;DHT22;21042;47.620;12.188;2023-04-03T07:06:01;3.10;99.90
34829;DHT22;21042;47.620;12.188;2023-04-03T07:08:27;3.10;99.90
34829;DHT22;21042;47.620;12.188;2023-04-03T07:10:55;3.20;99.90
34829;DHT22;21042;47.620;12.188;2023-04-03T07:13:21;3.20;99.90
34829;DHT22;21042;47.620;12.188;2023-04-03T07:15:48;3.20;99.90
34829;DHT22;21042;47.620;12.188;2023-04-03T07:18:15;3.20;99.90
34829;DHT22;21042;47.620;12.188;2023-04-03T07:20:43;3.20;99.90
34829;DHT22;21042;47.620;12.188;2023-04-03T07:23:10;3.20;99.90
34829;DHT22;21042;47.620;12.188;2023-04-03T07:25:40;3.20;99.90
34829;DHT22;21042;47.620;12.188;2023-04-03T07:28:08;3.20;99.90
34829;DHT22;21042;47.620;12.188;2023-04-03T07:30:37;3.20;99.90
34829;DHT22;21042;47.620;12.188;2023-04-03T07:33:08;3.20;99.90
34829;DHT22;21042;47.620;12.188;2023-04-03T07:35:35;3.30;99.90
34829;DHT22;21042;47.620;12.188;2023-04-03T07:38:02;3.30;99.90
34829;DHT22;21042;47.620;12.188;2023-04-03T07:40:29;3.30;99.90
34829;DHT22;21042;47.620;12.188;2023-04-03T07:42:56;3.30;99.90
34829;DHT22;21042;47.620;12.188;2023-04-03T07:45:23;3.30;99.90
34829;DHT22;21042;47.620;12.188;2023-04-03T07:47:50;3.40;99.90
34829;DHT22;21042;47.620;12.188;2023-04-03T07:50:17;3.40;99.90
34829;DHT22;21042;47.620;12.188;2023-04-03T07:52:44;3.50;99.90
34829;DHT22;21042;47.620;12.188;2023-04-03T07:55:11;3.50;99.90
34829;DHT22;21042;47.620;12.188;2023-04-03T07:57:38;3.60;99.90
34829;DHT22;21042;47.620;12.188;2023-04-03T08:00:05;3.70;99.90
34829;DHT22;21042;47.620;12.188;2023-04-03T08:02:37;3.60;99.90
34829;DHT22;21042;47.620;12.188;2023-04-03T08:05:04;3.80;99.90
34829;DHT22;21042;47.620;12.188;2023-04-03T08:07:31;3.90;99.90
34829;DHT22;21042;47.620;12.188;2023-04-03T08:09:58;4.00;99.90
34829;DHT22;21042;47.620;12.188;2023-04-03T08:12:24;4.00;99.90
34829;DHT22;21042;47.620;12.188;2023-04-03T08:14:51;4.10;99.90
34829;DHT22;21042;47.620;12.188;2023-04-03T08:17:18;4.10;99.90
34829;DHT22;21042;47.620;12.188;2023-04-03T08:19:44;4.30;99.90
34829;DHT22;21042;47.620;12.188;2023-04-03T08:22:11;4.40;99.90
34829;DHT22;21042;47.620;12.188;2023-04-03T08:24:38;4.50;99.90
34829;DHT22;21042;47.620;12.188;2023-04-03T08:27:11;4.50;99.90
34829;DHT22;21042;47.620;12.188;2023-04-03T08:29:37;4.60;99.90
34829;DHT22;21042;47.620;12.188;2023-04-03T08:32:04;4.60;99.90
34829;DHT22;21042;47.620;12.188;2023-04-03T08:34:31;4.60;99.90
34829;DHT22;21042;47.620;12.188;2023-04-03T08:37:01;4.60;99.90
34829;DHT22;21042;47.620;12.188;2023-04-03T08:39:27;4.60;99.90
34829;DHT22;21042;47.620;12.188;2023-04-03T08:41:55;4.50;99.90
34829;DHT22;21042;47.620;12.188;2023-04-03T08:49:21;4.40;99.90
34829;DHT22;21042;47.620;12.188;2023-04-03T08:51:49;4.40;99.90
34829;DHT22;21042;47.620;12.188;2023-04-03T08:54:21;4.40;99.90
34829;DHT22;21042;47.620;12.188;2023-04-03T08:56:48;4.50;99.90
34829;DHT22;21042;47.620;12.188;2023-04-03T08:59:16;4.40;99.90
34829;DHT22;21042;47.620;12.188;2023-04-03T09:01:46;4.60;99.90
34829;DHT22;21042;47.620;12.188;2023-04-03T09:04:14;4.80;99.90
34829;DHT22;21042;47.620;12.188;2023-04-03T09:06:43;4.90;99.90
34829;DHT22;21042;47.620;12.188;2023-04-03T09:09:16;5.00;99.90
34829;DHT22;21042;47.620;12.188;2023-04-03T09:11:53;5.10;99.90
34829;DHT22;21042;47.620;12.188;2023-04-03T09:16:55;5.30;99.90
34829;DHT22;21042;47.620;12.188;2023-04-03T09:24:29;5.50;99.90
34829;DHT22;21042;47.620;12.188;2023-04-03T09:26:58;5.60;99.90
34829;DHT22;21042;47.620;12.188;2023-04-03T09:29:28;5.70;99.90
34829;DHT22;21042;47.620;12.188;2023-04-03T09:31:56;5.90;99.90
34829;DHT22;21042;47.620;12.188;2023-04-03T09:34:28;6.00;99.90
34829;DHT22;21042;47.620;12.188;2023-04-03T09:36:57;5.90;99.90
34829;DHT22;21042;47.620;12.188;2023-04-03T09:39:26;5.90;99.90
34829;DHT22;21042;47.620;12.188;2023-04-03T09:42:00;5.90;99.90
34829;DHT22;21042;47.620;12.188;2023-04-03T09:46:57;6.10;99.90
34829;DHT22;21042;47.620;12.188;2023-04-03T09:49:24;6.20;99.90
34829;DHT22;21042;47.620;12.188;2023-04-03T09:51:51;6.40;99.90
34829;DHT22;21042;47.620;12.188;2023-04-03T09:54:36;6.60;99.90
34829;DHT22;21042;47.620;12.188;2023-04-03T09:57:08;6.70;99.90
34829;DHT22;21042;47.620;12.188;2023-04-03T09:59:36;6.60;99.90
34829;DHT22;21042;47.620;12.188;2023-04-03T10:02:20;6.80;99.90
34829;DHT22;21042;47.620;12.188;2023-04-03T10:04:48;7.00;99.90
34829;DHT22;21042;47.620;12.188;2023-04-03T10:07:34;7.00;99.90
34829;DHT22;21042;47.620;12.188;2023-04-03T10:10:16;6.60;99.90
34829;DHT22;21042;47.620;12.188;2023-04-03T10:12:44;6.40;99.90
34829;DHT22;21042;47.620;12.188;2023-04-03T10:15:14;6.20;99.90
34829;DHT22;21042;47.620;12.188;2023-04-03T10:23:00;6.10;99.90
34829;DHT22;21042;47.620;12.188;2023-04-03T10:25:34;6.00;99.90
34829;DHT22;21042;47.620;12.188;2023-04-03T10:28:05;6.00;99.90
34829;DHT22;21042;47.620;12.188;2023-04-03T10:30:47;6.00;99.90
34829;DHT22;21042;47.620;12.188;2023-04-03T10:33:25;6.10;99.90
34829;DHT22;21042;47.620;12.188;2023-04-03T10:41:16;6.00;99.90
34829;DHT22;21042;47.620;12.188;2023-04-03T10:46:15;5.80;99.90
34829;DHT22;21042;47.620;12.188;2023-04-03T10:49:04;5.70;99.90
34829;DHT22;21042;47.620;12.188;2023-04-03T11:01:31;5.70;99.90
34829;DHT22;21042;47.620;12.188;2023-04-03T11:04:00;5.70;99.90
34829;DHT22;21042;47.620;12.188;2023-04-03T11:06:41;5.80;99.90
34829;DHT22;21042;47.620;12.188;2023-04-03T11:09:14;5.80;99.90
34829;DHT22;21042;47.620;12.188;2023-04-03T11:11:43;5.80;99.90
34829;DHT22;21042;47.620;12.188;2023-04-03T11:14:13;5.90;99.90
34829;DHT22;21042;47.620;12.188;2023-04-03T11:16:43;5.90;99.90
34829;DHT22;21042;47.620;12.188;2023-04-03T11:19:20;5.90;99.90
34829;DHT22;21042;47.620;12.188;2023-04-03T11:21:56;5.80;99.90
34829;DHT22;21042;47.620;12.188;2023-04-03T11:24:28;5.80;99.90
34829;DHT22;21042;47.620;12.188;2023-04-03T11:26:57;5.80;99.90
34829;DHT22;21042;47.620;12.188;2023-04-03T11:29:27;5.80;99.90
34829;DHT22;21042;47.620;12.188;2023-04-03T11:34:33;5.90;99.90
34829;DHT22;21042;47.620;12.188;2023-04-03T11:37:03;6.00;99.90
34829;DHT22;21042;47.620;12.188;2023-04-03T11:39:31;5.90;99.90
34829;DHT22;21042;47.620;12.188;2023-04-03T11:42:13;5.90;99.90
34829;DHT22;21042;47.620;12.188;2023-04-03T11:44:41;6.00;99.90
34829;DHT22;21042;47.620;12.188;2023-04-03T11:47:08;5.90;99.90
34829;DHT22;21042;47.620;12.188;2023-04-03T11:55:57;5.60;99.90
34829;DHT22;21042;47.620;12.188;2023-04-03T11:58:10;5.60;99.90
34829;DHT22;21042;47.620;12.188;2023-04-03T12:05:50;5.40;99.90
34829;DHT22;21042;47.620;12.188;2023-04-03T12:13:35;5.40;99.90
34829;DHT22;21042;47.620;12.188;2023-04-03T12:16:02;5.40;99.90
34829;DHT22;21042;47.620;12.188;2023-04-03T12:21:12;5.30;99.90
34829;DHT22;21042;47.620;12.188;2023-04-03T12:26:26;5.30;99.90
34829;DHT22;21042;47.620;12.188;2023-04-03T12:37:09;5.60;99.90
34829;DHT22;21042;47.620;12.188;2023-04-03T12:39:58;5.80;99.90
34829;DHT22;21042;47.620;12.188;2023-04-03T12:42:40;5.80;99.90
34829;DHT22;21042;47.620;12.188;2023-04-03T12:47:41;5.90;99.90
34829;DHT22;21042;47.620;12.188;2023-04-03T12:50:18;5.80;99.90
34829;DHT22;21042;47.620;12.188;2023-04-03T12:52:50;5.70;99.90
34829;DHT22;21042;47.620;12.188;2023-04-03T12:55:19;5.70;99.90
34829;DHT22;21042;47.620;12.188;2023-04-03T12:57:46;5.60;99.90
34829;DHT22;21042;47.620;12.188;2023-04-03T13:00:27;5.60;99.90
34829;DHT22;21042;47.620;12.188;2023-04-03T13:02:54;5.60;99.90
34829;DHT22;21042;47.620;12.188;2023-04-03T13:05:22;5.80;99.90
34829;DHT22;21042;47.620;12.188;2023-04-03T13:08:12;5.60;99.90
34829;DHT22;21042;47.620;12.188;2023-04-03T13:10:43;5.50;99.90
34829;DHT22;21042;47.620;12.188;2023-04-03T13:13:13;5.40;99.90
34829;DHT22;21042;47.620;12.188;2023-04-03T13:15:42;5.30;99.90
34829;DHT22;21042;47.620;12.188;2023-04-03T13:20:48;5.00;99.90
34829;DHT22;21042;47.620;12.188;2023-04-03T13:23:15;4.90;99.90
34829;DHT22;21042;47.620;12.188;2023-04-03T13:25:44;4.90;99.90
34829;DHT22;21042;47.620;12.188;2023-04-03T13:28:13;4.80;99.90
34829;DHT22;21042;47.620;12.188;2023-04-03T13:30:41;4.80;99.90
34829;DHT22;21042;47.620;12.188;2023-04-03T13:33:21;4.80;99.90
34829;DHT22;21042;47.620;12.188;2023-04-03T13:35:54;4.70;99.90
34829;DHT22;21042;47.620;12.188;2023-04-03T13:38:22;4.80;99.90
34829;DHT22;21042;47.620;12.188;2023-04-03T13:40:56;4.90;99.90
34829;DHT22;21042;47.620;12.188;2023-04-03T13:43:25;4.90;99.90
34829;DHT22;21042;47.620;12.188;2023-04-03T13:46:00;4.90;99.90
34829;DHT22;21042;47.620;12.188;2023-04-03T13:48:27;4.90;99.90
34829;DHT22;21042;47.620;12.188;2023-04-03T13:51:02;5.00;99.90
34829;DHT22;21042;47.620;12.188;2023-04-03T13:53:30;5.00;99.90
34829;DHT22;21042;47.620;12.188;2023-04-03T13:58:30;5.10;99.90
34829;DHT22;21042;47.620;12.188;2023-04-03T14:03:55;5.20;99.90
34829;DHT22;21042;47.620;12.188;2023-04-03T14:06:23;5.20;99.90
34829;DHT22;21042;47.620;12.188;2023-04-03T14:08:50;5.20;99.90
34829;DHT22;21042;47.620;12.188;2023-04-03T14:11:21;5.20;99.90
34829;DHT22;21042;47.620;12.188;2023-04-03T14:13:50;5.30;99.90
34829;DHT22;21042;47.620;12.188;2023-04-03T14:16:21;5.30;99.90
34829;DHT22;21042;47.620;12.188;2023-04-03T14:18:48;5.30;99.90
34829;DHT22;21042;47.620;12.188;2023-04-03T14:21:16;5.30;99.90
34829;DHT22;21042;47.620;12.188;2023-04-03T14:23:43;5.30;99.90
34829;DHT22;21042;47.620;12.188;2023-04-03T14:26:14;5.30;99.90
34829;DHT22;21042;47.620;12.188;2023-04-03T14:28:43;5.30;99.90
34829;DHT22;21042;47.620;12.188;2023-04-03T14:31:11;5.20;99.90
34829;DHT22;21042;47.620;12.188;2023-04-03T14:33:38;5.20;99.90
34829;DHT22;21042;47.620;12.188;2023-04-03T14:36:15;5.10;99.90
34829;DHT22;21042;47.620;12.188;2023-04-03T14:38:43;5.00;99.90
34829;DHT22;21042;47.620;12.188;2023-04-03T14:41:13;5.00;99.90
34829;DHT22;21042;47.620;12.188;2023-04-03T14:43:43;4.90;99.90
34829;DHT22;21042;47.620;12.188;2023-04-03T14:46:12;4.90;99.90
34829;DHT22;21042;47.620;12.188;2023-04-03T14:48:39;4.90;99.90
34829;DHT22;21042;47.620;12.188;2023-04-03T14:51:05;4.90;99.90
34829;DHT22;21042;47.620;12.188;2023-04-03T14:53:32;4.90;99.90
34829;DHT22;21042;47.620;12.188;2023-04-03T14:56:02;5.00;99.90
34829;DHT22;21042;47.620;12.188;2023-04-03T14:58:31;4.90;99.90
34829;DHT22;21042;47.620;12.188;2023-04-03T15:00:58;4.80;99.90
34829;DHT22;21042;47.620;12.188;2023-04-03T15:03:25;4.80;99.90
34829;DHT22;21042;47.620;12.188;2023-04-03T15:05:52;4.70;99.90
34829;DHT22;21042;47.620;12.188;2023-04-03T15:08:20;4.80;99.90
34829;DHT22;21042;47.620;12.188;2023-04-03T15:10:47;4.70;99.90
34829;DHT22;21042;47.620;12.188;2023-04-03T15:13:14;4.60;99.90
34829;DHT22;21042;47.620;12.188;2023-04-03T15:15:41;4.60;99.90
34829;DHT22;21042;47.620;12.188;2023-04-03T15:18:10;4.60;99.90
34829;DHT22;21042;47.620;12.188;2023-04-03T15:20:38;4.70;99.90
34829;DHT22;21042;47.620;12.188;2023-04-03T15:23:05;4.90;99.90
34829;DHT22;21042;47.620;12.188;2023-04-03T15:25:32;5.00;99.90
34829;DHT22;21042;47.620;12.188;2023-04-03T15:27:59;5.10;99.90
34829;DHT22;21042;47.620;12.188;2023-04-03T15:30:26;5.10;99.90
34829;DHT22;21042;47.620;12.188;2023-04-03T15:32:52;5.20;99.90
34829;DHT22;21042;47.620;12.188;2023-04-03T15:35:19;5.30;99.90
34829;DHT22;21042;47.620;12.188;2023-04-03T15:37:46;5.40;99.90
34829;DHT22;21042;47.620;12.188;2023-04-03T15:40:14;5.50;99.90
34829;DHT22;21042;47.620;12.188;2023-04-03T15:42:41;5.50;99.90
34829;DHT22;21042;47.620;12.188;2023-04-03T15:45:08;5.50;99.90
34829;DHT22;21042;47.620;12.188;2023-04-03T15:47:34;5.50;99.90
34829;DHT22;21042;47.620;12.188;2023-04-03T15:50:01;5.50;99.90
34829;DHT22;21042;47.620;12.188;2023-04-03T15:52:28;5.50;99.90
34829;DHT22;21042;47.620;12.188;2023-04-03T15:54:54;5.40;99.90
34829;DHT22;21042;47.620;12.188;2023-04-03T15:57:21;5.30;99.90
34829;DHT22;21042;47.620;12.188;2023-04-03T15:59:52;5.20;99.90
34829;DHT22;21042;47.620;12.188;2023-04-03T16:02:19;5.20;99.90
34829;DHT22;21042;47.620;12.188;2023-04-03T16:04:45;5.20;99.90
34829;DHT22;21042;47.620;12.188;2023-04-03T16:07:12;5.10;99.90
34829;DHT22;21042;47.620;12.188;2023-04-03T16:09:39;5.00;99.90
34829;DHT22;21042;47.620;12.188;2023-04-03T16:12:05;4.90;99.90
34829;DHT22;21042;47.620;12.188;2023-04-03T16:14:32;4.80;99.90
34829;DHT22;21042;47.620;12.188;2023-04-03T16:16:59;4.60;99.90
34829;DHT22;21042;47.620;12.188;2023-04-03T16:19:26;4.60;99.90
34829;DHT22;21042;47.620;12.188;2023-04-03T16:21:53;4.60;99.90
34829;DHT22;21042;47.620;12.188;2023-04-03T16:24:20;4.60;99.90
34829;DHT22;21042;47.620;12.188;2023-04-03T16:26:47;4.60;99.90
34829;DHT22;21042;47.620;12.188;2023-04-03T16:29:14;4.60;99.90
34829;DHT22;21042;47.620;12.188;2023-04-03T16:31:41;4.60;99.90
34829;DHT22;21042;47.620;12.188;2023-04-03T16:34:07;4.50;99.90
34829;DHT22;21042;47.620;12.188;2023-04-03T16:36:34;4.50;99.90
34829;DHT22;21042;47.620;12.188;2023-04-03T16:39:01;4.50;99.90
34829;DHT22;21042;47.620;12.188;2023-04-03T16:41:28;4.50;99.90
34829;DHT22;21042;47.620;12.188;2023-04-03T16:43:54;4.50;99.90
34829;DHT22;21042;47.620;12.188;2023-04-03T16:46:21;4.50;99.90
34829;DHT22;21042;47.620;12.188;2023-04-03T16:48:48;4.50;99.90
34829;DHT22;21042;47.620;12.188;2023-04-03T16:51:14;4.40;99.90
34829;DHT22;21042;47.620;12.188;2023-04-03T16:53:41;4.40;99.90
34829;DHT22;21042;47.620;12.188;2023-04-03T16:56:08;4.30;99.90
34829;DHT22;21042;47.620;12.188;2023-04-03T16:58:35;4.30;99.90
34829;DHT22;21042;47.620;12.188;2023-04-03T17:01:11;4.20;99.90
34829;DHT22;21042;47.620;12.188;2023-04-03T17:03:39;4.20;99.90
34829;DHT22;21042;47.620;12.188;2023-04-03T17:06:05;4.20;99.90
34829;DHT22;21042;47.620;12.188;2023-04-03T17:08:33;4.20;99.90